Time;durP1;ratioP1;P1;durP2;ratioP2;P2;SDS_P1;SDS_P2;PMS_P1;PMS_P2;Temp;Humidity;BMP_temperature;BMP_pressure;BME280_temperature;BME280_humidity;BME280_pressure;Samples;Min_cycle;Max_cycle;Signal;HPM_P1;HPM_P2
2021/08/17 00:00:51;;;;;;;3.83;2.83;;;17.80;61.30;;;;;;5105840;28;20111;-78
2021/08/17 00:03:17;;;;;;;4.45;3.42;;;17.80;61.30;;;;;;5084546;28;20036;-78
2021/08/17 00:05:43;;;;;;;4.57;2.30;;;17.80;61.40;;;;;;5084783;28;20335;-77
2021/08/17 00:08:10;;;;;;;4.18;3.10;;;17.80;61.40;;;;;;5088252;28;20059;-77
2021/08/17 00:10:36;;;;;;;2.60;2.33;;;17.70;61.20;;;;;;5106694;28;20047;-77
2021/08/17 00:13:03;;;;;;;3.90;2.95;;;17.80;61.50;;;;;;5108502;28;20036;-78
2021/08/17 00:15:29;;;;;;;4.18;2.88;;;17.80;61.50;;;;;;5110743;28;20453;-77
2021/08/17 00:17:55;;;;;;;2.60;2.40;;;17.80;61.50;;;;;;5109506;28;20032;-78
2021/08/17 00:20:23;;;;;;;4.25;2.90;;;17.70;61.40;;;;;;5088511;28;20024;-77
2021/08/17 00:22:49;;;;;;;3.45;2.90;;;17.70;61.50;;;;;;5090558;28;20107;-77
2021/08/17 00:25:15;;;;;;;3.05;2.45;;;17.70;61.50;;;;;;5109746;28;20143;-77
2021/08/17 00:27:42;;;;;;;3.97;3.03;;;17.70;61.50;;;;;;5108238;28;20110;-78
2021/08/17 00:30:09;;;;;;;2.78;2.53;;;17.70;61.60;;;;;;5089245;28;20127;-78
2021/08/17 00:32:35;;;;;;;2.88;2.47;;;17.70;61.60;;;;;;5104710;28;20047;-78
2021/08/17 00:35:02;;;;;;;3.13;2.70;;;17.70;61.60;;;;;;5109397;28;20059;-78
2021/08/17 00:37:28;;;;;;;3.95;2.95;;;17.70;61.60;;;;;;5109487;28;20122;-77
2021/08/17 00:39:54;;;;;;;3.13;2.75;;;17.70;61.70;;;;;;5091428;28;20028;-77
2021/08/17 00:42:20;;;;;;;3.47;2.67;;;17.70;61.70;;;;;;5087901;28;20067;-78
2021/08/17 00:44:46;;;;;;;5.32;2.78;;;17.70;61.70;;;;;;5104885;28;20024;-78
2021/08/17 00:47:16;;;;;;;3.28;2.65;;;17.70;61.70;;;;;;5109298;28;20431;-78
2021/08/17 00:49:43;;;;;;;4.25;2.80;;;17.70;61.80;;;;;;5093027;28;20035;-78
2021/08/17 00:52:12;;;;;;;3.22;2.90;;;17.70;61.80;;;;;;5070837;28;20062;-78
2021/08/17 00:54:43;;;;;;;3.53;2.85;;;17.60;61.70;;;;;;5089013;28;20111;-78
2021/08/17 00:57:13;;;;;;;3.17;2.53;;;17.60;61.70;;;;;;5089005;28;20024;-78
2021/08/17 00:59:40;;;;;;;3.83;2.67;;;17.70;62.00;;;;;;5085669;28;20035;-78
2021/08/17 01:02:06;;;;;;;3.13;2.80;;;17.60;61.80;;;;;;5097509;28;20586;-78
2021/08/17 01:04:33;;;;;;;5.75;3.47;;;17.60;61.80;;;;;;5103912;28;20202;-78
2021/08/17 01:07:05;;;;;;;3.03;2.50;;;17.60;61.90;;;;;;5091135;28;20031;-78
2021/08/17 01:09:31;;;;;;;3.33;2.72;;;17.60;61.90;;;;;;5094085;28;20024;-78
2021/08/17 01:12:03;;;;;;;5.30;2.65;;;17.60;62.00;;;;;;5087489;28;20479;-79
2021/08/17 01:14:30;;;;;;;5.38;2.33;;;17.60;62.00;;;;;;5103408;28;20020;-78
2021/08/17 01:16:56;;;;;;;3.30;2.80;;;17.60;62.00;;;;;;5108129;28;20037;-79
2021/08/17 01:19:22;;;;;;;3.38;2.70;;;17.60;62.00;;;;;;5096656;27;20081;-78
2021/08/17 01:21:49;;;;;;;3.35;2.80;;;17.60;62.10;;;;;;5088193;28;20115;-78
2021/08/17 01:24:16;;;;;;;3.33;2.85;;;17.60;62.10;;;;;;5100057;28;20024;-78
2021/08/17 01:26:42;;;;;;;3.05;2.65;;;17.60;62.10;;;;;;5107411;28;20402;-78
2021/08/17 01:29:15;;;;;;;4.90;3.10;;;17.60;62.10;;;;;;5097108;28;20024;-78
2021/08/17 01:31:41;;;;;;;4.03;2.58;;;17.50;62.00;;;;;;5082666;28;20064;-79
2021/08/17 01:34:07;;;;;;;3.95;2.80;;;17.60;62.20;;;;;;5079493;28;20046;-78
2021/08/17 01:36:34;;;;;;;3.50;2.45;;;17.60;62.20;;;;;;5088601;28;20036;-77
2021/08/17 01:39:00;;;;;;;4.13;2.70;;;17.60;62.20;;;;;;5097582;28;20460;-79
2021/08/17 01:41:26;;;;;;;3.20;2.50;;;17.60;62.30;;;;;;5109876;28;20024;-77
2021/08/17 01:43:53;;;;;;;4.78;3.13;;;17.50;62.10;;;;;;5110056;28;20039;-77
2021/08/17 01:46:19;;;;;;;4.63;2.63;;;17.50;62.10;;;;;;5092790;28;20024;-78
2021/08/17 01:48:45;;;;;;;3.58;2.80;;;17.60;62.30;;;;;;5079674;28;20032;-78
2021/08/17 01:51:11;;;;;;;3.35;2.63;;;17.50;62.20;;;;;;5089481;28;20032;-77
2021/08/17 01:53:38;;;;;;;3.28;2.65;;;17.60;63.00;;;;;;5087566;28;20560;-78
2021/08/17 01:56:09;;;;;;;3.08;2.65;;;17.60;62.50;;;;;;5070888;28;20053;-77
2021/08/17 01:58:35;;;;;;;6.63;2.60;;;17.50;62.30;;;;;;5070864;28;20154;-78
2021/08/17 02:01:03;;;;;;;6.50;3.33;;;17.50;62.30;;;;;;5074100;28;20025;-77
2021/08/17 02:03:29;;;;;;;5.30;2.45;;;17.50;62.30;;;;;;5091201;28;20028;-78
2021/08/17 02:05:55;;;;;;;3.17;2.53;;;17.50;62.40;;;;;;5092097;28;20035;-78
2021/08/17 02:08:21;;;;;;;5.30;2.95;;;17.50;62.40;;;;;;5092086;28;20058;-78
2021/08/17 02:10:47;;;;;;;3.17;2.55;;;17.50;62.50;;;;;;5090879;28;20047;-79
2021/08/17 02:13:16;;;;;;;3.20;2.88;;;17.50;62.50;;;;;;5092042;28;20032;-79
2021/08/17 02:15:43;;;;;;;3.40;2.70;;;17.50;62.50;;;;;;5091889;28;20456;-77
2021/08/17 02:18:09;;;;;;;3.92;3.45;;;17.50;62.50;;;;;;5091970;28;20114;-77
2021/08/17 02:20:35;;;;;;;3.03;2.63;;;17.50;62.60;;;;;;5091759;28;20028;-79
2021/08/17 02:23:01;;;;;;;3.35;2.92;;;17.50;62.60;;;;;;5090622;28;20024;-76
2021/08/17 02:25:27;;;;;;;3.30;3.00;;;17.50;62.60;;;;;;5091406;28;20383;-78
2021/08/17 02:27:53;;;;;;;4.68;2.92;;;17.50;62.70;;;;;;5091708;28;20081;-78
2021/08/17 02:30:19;;;;;;;6.45;2.88;;;17.50;62.80;;;;;;5091722;28;20085;-77
2021/08/17 02:32:45;;;;;;;5.00;3.20;;;17.40;62.60;;;;;;5090786;28;20036;-77
2021/08/17 02:35:11;;;;;;;3.38;2.83;;;17.50;62.80;;;;;;5091547;28;20028;-77
2021/08/17 02:37:38;;;;;;;3.50;3.08;;;17.50;62.80;;;;;;5090406;28;20056;-78
2021/08/17 02:40:05;;;;;;;3.42;2.90;;;17.50;62.90;;;;;;5091555;28;20039;-78
2021/08/17 02:42:33;;;;;;;7.97;3.30;;;17.40;62.70;;;;;;5090172;28;20035;-78
2021/08/17 02:45:02;;;;;;;4.25;2.97;;;17.50;62.90;;;;;;5073550;28;20069;-77
2021/08/17 02:47:29;;;;;;;4.93;2.67;;;17.50;63.00;;;;;;5090496;28;20036;-78
2021/08/17 02:49:54;;;;;;;6.35;3.03;;;17.50;63.00;;;;;;5091096;28;20168;-78
2021/08/17 02:52:20;;;;;;;3.90;3.08;;;17.50;63.00;;;;;;5090121;28;20135;-78
2021/08/17 02:54:49;;;;;;;4.20;3.20;;;17.40;62.90;;;;;;5091421;28;20024;-77
2021/08/17 02:57:15;;;;;;;4.25;2.85;;;17.40;62.90;;;;;;5090130;28;20032;-79
2021/08/17 02:59:41;;;;;;;6.00;3.22;;;17.50;63.10;;;;;;5091635;28;20024;-78
2021/08/17 03:02:06;;;;;;;5.07;3.05;;;17.40;63.00;;;;;;5090223;28;20599;-78
2021/08/17 03:04:33;;;;;;;4.00;3.17;;;17.40;63.00;;;;;;5089967;28;20115;-77
2021/08/17 03:06:59;;;;;;;3.67;2.67;;;17.40;63.00;;;;;;5089901;28;20031;-78
2021/08/17 03:09:25;;;;;;;5.35;2.72;;;17.40;63.10;;;;;;5090840;28;20020;-78
2021/08/17 03:11:51;;;;;;;3.50;3.17;;;17.40;63.10;;;;;;5089888;28;20058;-78
2021/08/17 03:14:17;;;;;;;3.03;2.70;;;17.40;63.10;;;;;;5091113;28;20024;-78
2021/08/17 03:16:43;;;;;;;3.65;3.33;;;17.40;63.20;;;;;;5073238;28;20090;-78
2021/08/17 03:19:09;;;;;;;3.50;2.55;;;17.30;63.00;;;;;;5090652;28;20035;-80
2021/08/17 03:21:34;;;;;;;3.35;3.00;;;17.40;63.20;;;;;;5091192;28;20028;-78
2021/08/17 03:24:01;;;;;;;5.55;3.03;;;17.30;63.00;;;;;;5091156;28;20028;-79
2021/08/17 03:26:27;;;;;;;3.08;2.72;;;17.40;63.20;;;;;;5090851;28;20067;-78
2021/08/17 03:28:53;;;;;;;4.32;3.00;;;17.30;63.10;;;;;;5090881;28;20025;-78
2021/08/17 03:31:19;;;;;;;3.40;2.75;;;17.30;63.10;;;;;;5091044;28;20036;-79
2021/08/17 03:33:46;;;;;;;3.42;2.83;;;17.40;63.30;;;;;;5090761;28;20115;-78
2021/08/17 03:36:12;;;;;;;3.75;2.83;;;17.40;63.40;;;;;;5072805;28;20055;-78
2021/08/17 03:38:38;;;;;;;3.10;2.30;;;17.30;63.20;;;;;;5090676;28;20035;-77
2021/08/17 03:41:04;;;;;;;3.15;2.75;;;17.40;63.40;;;;;;5072725;28;20032;-77
2021/08/17 03:43:32;;;;;;;3.08;2.78;;;17.40;63.50;;;;;;5089893;28;20486;-78
2021/08/17 03:45:58;;;;;;;3.75;3.00;;;17.30;63.30;;;;;;5093619;28;20035;-78
2021/08/17 03:48:24;;;;;;;4.47;2.90;;;17.40;63.50;;;;;;5094886;28;20024;-78
2021/08/17 03:50:50;;;;;;;3.33;2.78;;;17.40;63.50;;;;;;5093153;28;20055;-77
2021/08/17 03:53:16;;;;;;;4.75;3.17;;;17.30;63.30;;;;;;5093530;28;20024;-77
2021/08/17 03:55:42;;;;;;;4.38;3.28;;;17.40;63.50;;;;;;5093799;28;20043;-78
2021/08/17 03:58:08;;;;;;;2.75;2.55;;;17.30;63.30;;;;;;5093265;28;20107;-78
2021/08/17 04:00:35;;;;;;;3.08;2.75;;;17.30;63.30;;;;;;5094929;28;20186;-77
2021/08/17 04:03:02;;;;;;;3.35;2.97;;;17.40;63.50;;;;;;5073210;28;20541;-78
2021/08/17 04:05:28;;;;;;;3.35;2.72;;;17.30;63.40;;;;;;5074371;28;20024;-77
2021/08/17 04:07:55;;;;;;;3.55;2.97;;;17.40;63.60;;;;;;5073234;28;20036;-77
2021/08/17 04:10:22;;;;;;;3.20;2.67;;;17.30;63.40;;;;;;5074510;28;20044;-78
2021/08/17 04:12:48;;;;;;;4.43;2.92;;;17.30;63.50;;;;;;5073011;28;20075;-77
2021/08/17 04:15:14;;;;;;;3.20;2.50;;;17.30;63.50;;;;;;5072934;28;20439;-77
2021/08/17 04:17:41;;;;;;;4.43;3.20;;;17.30;63.50;;;;;;5072832;28;20036;-77
2021/08/17 04:20:10;;;;;;;4.03;2.95;;;17.30;63.50;;;;;;5072361;28;20467;-77
2021/08/17 04:22:37;;;;;;;3.08;2.70;;;17.30;63.60;;;;;;5071910;28;20090;-77
2021/08/17 04:25:04;;;;;;;5.10;3.45;;;17.30;63.60;;;;;;5074239;28;20038;-78
2021/08/17 04:27:31;;;;;;;3.63;2.88;;;17.30;63.60;;;;;;5072510;28;20028;-77
2021/08/17 04:29:57;;;;;;;4.85;2.88;;;17.30;63.60;;;;;;5072557;28;20048;-78
2021/08/17 04:32:23;;;;;;;3.08;2.75;;;17.20;63.50;;;;;;5087270;28;20079;-77
2021/08/17 04:34:49;;;;;;;3.67;2.88;;;17.30;63.70;;;;;;5093546;28;20024;-78
2021/08/17 04:37:15;;;;;;;3.90;3.15;;;17.30;63.70;;;;;;5094019;28;20395;-77
2021/08/17 04:39:41;;;;;;;4.32;3.00;;;17.20;63.50;;;;;;5092769;28;20387;-79
2021/08/17 04:42:07;;;;;;;3.60;3.10;;;17.30;63.70;;;;;;5092320;28;20411;-77
2021/08/17 04:44:33;;;;;;;3.53;2.72;;;17.30;63.70;;;;;;5092475;28;20559;-78
2021/08/17 04:47:00;;;;;;;5.47;2.83;;;17.20;63.60;;;;;;5092393;28;20128;-78
2021/08/17 04:49:25;;;;;;;3.10;2.75;;;17.30;63.80;;;;;;5084817;28;20464;-77
2021/08/17 04:51:51;;;;;;;3.85;2.63;;;17.20;63.60;;;;;;5076936;28;20036;-77
2021/08/17 04:54:17;;;;;;;4.25;2.92;;;17.20;63.60;;;;;;5076102;28;20039;-77
2021/08/17 04:56:43;;;;;;;4.65;3.05;;;17.20;63.70;;;;;;5082390;28;20039;-78
2021/08/17 04:59:09;;;;;;;5.80;3.25;;;17.20;63.70;;;;;;5078016;28;20024;-77
2021/08/17 05:01:35;;;;;;;3.40;3.08;;;17.20;63.70;;;;;;5080447;28;20051;-78
2021/08/17 05:04:03;;;;;;;3.70;2.50;;;17.20;63.70;;;;;;5077243;28;20557;-77
2021/08/17 05:06:30;;;;;;;4.00;2.90;;;17.20;63.70;;;;;;5078363;28;20395;-79
2021/08/17 05:08:55;;;;;;;3.75;3.10;;;17.20;63.70;;;;;;5072821;28;20024;-79
2021/08/17 05:11:21;;;;;;;4.00;2.75;;;17.20;63.70;;;;;;5066438;28;20044;-78
2021/08/17 05:13:47;;;;;;;4.57;2.90;;;17.20;63.80;;;;;;5065023;28;20095;-78
2021/08/17 05:16:13;;;;;;;2.55;2.35;;;17.30;64.50;;;;;;5088653;28;20035;-78
2021/08/17 05:18:39;;;;;;;4.88;2.85;;;17.20;63.90;;;;;;5069685;28;20386;-78
2021/08/17 05:21:05;;;;;;;3.22;2.50;;;17.20;63.90;;;;;;5087776;28;20510;-77
2021/08/17 05:23:31;;;;;;;3.75;2.95;;;17.20;63.90;;;;;;5082405;28;20028;-78
2021/08/17 05:25:57;;;;;;;4.28;2.67;;;17.20;64.00;;;;;;5085490;28;20059;-77
2021/08/17 05:28:23;;;;;;;3.38;3.00;;;17.20;64.00;;;;;;5061721;28;20160;-78
2021/08/17 05:30:50;;;;;;;4.65;3.08;;;17.20;64.00;;;;;;5086545;28;20032;-79
2021/08/17 05:33:16;;;;;;;4.88;2.88;;;17.20;64.00;;;;;;5087117;28;20027;-77
2021/08/17 05:35:43;;;;;;;3.83;3.13;;;17.30;64.10;;;;;;5100014;28;20032;-78
2021/08/17 05:38:10;;;;;;;5.60;3.03;;;17.30;64.10;;;;;;5079097;28;20426;-82
2021/08/17 05:40:36;;;;;;;4.97;3.17;;;17.30;64.10;;;;;;5085100;28;20085;-79
2021/08/17 05:43:03;;;;;;;3.97;2.67;;;17.30;64.10;;;;;;5076322;28;20395;-78
2021/08/17 05:45:33;;;;;;;4.88;2.47;;;17.30;64.10;;;;;;5108475;28;20439;-78
2021/08/17 05:47:59;;;;;;;2.88;2.58;;;17.40;64.20;;;;;;5100363;28;20028;-79
2021/08/17 05:50:25;;;;;;;6.22;3.17;;;17.30;64.00;;;;;;5087362;28;20035;-80
2021/08/17 05:52:51;;;;;;;4.45;3.00;;;17.40;64.20;;;;;;5076788;28;20398;-86
2021/08/17 05:55:17;;;;;;;3.15;2.38;;;17.40;64.20;;;;;;5090006;28;20027;-80
2021/08/17 05:57:59;;;;;;;3.13;2.78;;;17.40;64.20;;;;;;5104390;28;20039;-83
2021/08/17 06:00:26;;;;;;;4.88;2.70;;;17.40;64.30;;;;;;5081491;28;20044;-78
2021/08/17 06:02:53;;;;;;;4.60;3.10;;;17.40;64.30;;;;;;5066820;28;20032;-84
2021/08/17 06:05:19;;;;;;;4.97;2.90;;;17.40;64.30;;;;;;5076868;28;20482;-78
2021/08/17 06:07:47;;;;;;;6.07;3.45;;;17.40;64.30;;;;;;5085897;28;20104;-77
2021/08/17 06:10:13;;;;;;;5.38;2.72;;;17.40;64.40;;;;;;5087514;28;20127;-79
2021/08/17 06:12:39;;;;;;;4.88;3.08;;;17.40;64.40;;;;;;5085146;28;20071;-77
2021/08/17 06:15:06;;;;;;;4.63;2.97;;;17.40;64.40;;;;;;5075763;28;20398;-76
2021/08/17 06:17:32;;;;;;;3.65;2.90;;;17.40;64.40;;;;;;5074770;28;20028;-81
2021/08/17 06:19:58;;;;;;;5.00;2.75;;;17.40;64.50;;;;;;5083676;28;20042;-86
2021/08/17 06:22:24;;;;;;;5.25;2.80;;;17.40;64.50;;;;;;5060068;28;20039;-78
2021/08/17 06:24:50;;;;;;;5.75;3.30;;;17.40;64.50;;;;;;5095425;28;20024;-80
2021/08/17 06:27:16;;;;;;;4.03;2.95;;;17.40;64.60;;;;;;5085442;28;20024;-78
2021/08/17 06:29:43;;;;;;;4.22;2.88;;;17.40;64.60;;;;;;5084466;28;20028;-78
2021/08/17 06:32:09;;;;;;;3.83;2.97;;;17.40;64.70;;;;;;5074702;28;20394;-77
2021/08/17 06:34:35;;;;;;;3.40;2.97;;;17.40;64.80;;;;;;5073293;28;20035;-80
2021/08/17 06:37:01;;;;;;;5.15;3.10;;;17.40;64.80;;;;;;5064339;28;20112;-78
2021/08/17 06:39:27;;;;;;;4.03;2.95;;;17.40;64.80;;;;;;5101363;28;20122;-78
2021/08/17 06:41:53;;;;;;;3.95;2.85;;;17.40;64.90;;;;;;5105176;28;20470;-77
2021/08/17 06:44:19;;;;;;;3.70;2.83;;;17.40;64.90;;;;;;5103955;28;20427;-78
2021/08/17 06:46:46;;;;;;;5.60;3.40;;;17.40;64.90;;;;;;5104937;28;20023;-78
2021/08/17 06:49:12;;;;;;;6.68;3.20;;;17.50;65.00;;;;;;5068190;28;20036;-78
2021/08/17 06:51:38;;;;;;;5.45;3.67;;;17.50;65.00;;;;;;5064660;28;20070;-80
2021/08/17 06:54:04;;;;;;;5.95;3.30;;;17.50;65.00;;;;;;5099148;28;20080;-81
2021/08/17 06:56:31;;;;;;;3.72;2.97;;;17.50;65.00;;;;;;5095243;28;20122;-79
2021/08/17 06:58:57;;;;;;;3.53;2.72;;;17.50;65.00;;;;;;5085982;28;20488;-78
2021/08/17 07:01:23;;;;;;;3.78;2.97;;;17.60;65.20;;;;;;5087008;28;20531;-79
2021/08/17 07:03:49;;;;;;;4.65;2.90;;;17.60;65.20;;;;;;5096573;28;20202;-80
2021/08/17 07:06:14;;;;;;;4.70;3.40;;;17.60;65.20;;;;;;5105617;28;20382;-78
2021/08/17 07:08:40;;;;;;;3.97;3.58;;;17.60;65.20;;;;;;5097513;28;20042;-80
2021/08/17 07:11:07;;;;;;;5.03;3.25;;;17.60;65.20;;;;;;5105050;28;20047;-80
2021/08/17 07:13:33;;;;;;;6.07;3.97;;;17.60;65.20;;;;;;5107102;28;20093;-81
2021/08/17 07:15:59;;;;;;;6.38;4.60;;;17.60;65.20;;;;;;5106038;28;20043;-78
2021/08/17 07:18:26;;;;;;;5.70;4.30;;;17.60;65.20;;;;;;5105213;28;20023;-80
2021/08/17 07:20:52;;;;;;;5.03;4.07;;;17.70;65.50;;;;;;5093639;28;20019;-78
2021/08/17 07:23:18;;;;;;;5.45;4.45;;;17.70;65.50;;;;;;5084849;28;20028;-79
2021/08/17 07:25:44;;;;;;;6.15;4.78;;;17.70;65.50;;;;;;5084625;28;20032;-78
2021/08/17 07:28:10;;;;;;;5.63;5.00;;;17.70;65.50;;;;;;5091848;28;20023;-76
2021/08/17 07:30:38;;;;;;;5.10;4.60;;;17.70;65.60;;;;;;5106608;28;20036;-78
2021/08/17 07:33:04;;;;;;;6.38;4.38;;;17.70;65.60;;;;;;5095094;28;20046;-80
2021/08/17 07:35:30;;;;;;;5.25;4.82;;;17.80;65.80;;;;;;5105316;28;20035;-78
2021/08/17 07:37:56;;;;;;;6.47;5.70;;;17.70;65.60;;;;;;5106377;28;20378;-78
2021/08/17 07:40:23;;;;;;;6.00;5.10;;;17.90;65.90;;;;;;5107130;28;20035;-79
2021/08/17 07:42:49;;;;;;;6.25;4.90;;;17.90;65.80;;;;;;5100257;28;20048;-79
2021/08/17 07:45:15;;;;;;;8.13;5.15;;;18.00;65.90;;;;;;5085188;28;20501;-79
2021/08/17 07:47:43;;;;;;;9.18;5.57;;;18.00;66.00;;;;;;5088987;28;20039;-80
2021/08/17 07:50:11;;;;;;;5.60;4.95;;;18.10;66.10;;;;;;5105934;28;20031;-79
2021/08/17 07:52:37;;;;;;;5.20;4.70;;;18.10;66.00;;;;;;5087189;28;20032;-78
2021/08/17 07:55:05;;;;;;;4.78;4.38;;;18.20;66.10;;;;;;5099377;28;20027;-80
2021/08/17 07:57:31;;;;;;;6.68;4.72;;;18.20;66.10;;;;;;5076419;28;20040;-82
2021/08/17 07:59:58;;;;;;;5.53;4.63;;;18.30;66.20;;;;;;5106848;28;20366;-79
2021/08/17 08:02:24;;;;;;;4.65;3.78;;;18.30;66.20;;;;;;5094710;28;20094;-81
2021/08/17 08:04:50;;;;;;;5.32;4.32;;;18.40;66.30;;;;;;5106560;28;20046;-78
2021/08/17 08:07:16;;;;;;;5.65;4.78;;;18.50;66.50;;;;;;5105719;28;20030;-77
2021/08/17 08:09:42;;;;;;;4.43;4.03;;;18.60;66.60;;;;;;5105928;28;20409;-78
2021/08/17 08:12:13;;;;;;;5.20;4.53;;;18.60;66.40;;;;;;5105566;28;20065;-79
2021/08/17 08:14:40;;;;;;;5.78;4.40;;;18.70;66.50;;;;;;5084949;28;20429;-79
2021/08/17 08:17:06;;;;;;;4.75;4.25;;;18.80;66.60;;;;;;5085411;28;20046;-82
2021/08/17 08:19:32;;;;;;;4.20;3.63;;;18.90;66.70;;;;;;5102511;28;20457;-80
2021/08/17 08:21:58;;;;;;;8.40;4.50;;;19.00;66.60;;;;;;5104924;28;20111;-80
2021/08/17 08:24:24;;;;;;;4.50;4.05;;;19.20;66.90;;;;;;5105640;28;20035;-78
2021/08/17 08:26:49;;;;;;;4.15;3.45;;;19.30;66.90;;;;;;5105962;28;20038;-80
2021/08/17 08:29:15;;;;;;;5.65;4.43;;;19.40;66.90;;;;;;5105663;28;20520;-81
2021/08/17 08:31:42;;;;;;;5.45;3.65;;;19.50;66.90;;;;;;5100488;28;20032;-80
2021/08/17 08:34:08;;;;;;;7.07;4.05;;;19.60;67.00;;;;;;5087801;28;20442;-76
2021/08/17 08:36:34;;;;;;;5.20;3.72;;;19.70;67.00;;;;;;5089419;28;20068;-76
2021/08/17 08:39:00;;;;;;;3.58;3.28;;;19.80;67.10;;;;;;5077872;28;20064;-77
2021/08/17 08:41:26;;;;;;;4.05;3.63;;;19.90;67.20;;;;;;5068964;28;20079;-78
2021/08/17 08:43:52;;;;;;;5.65;4.18;;;20.10;67.40;;;;;;5097518;28;20027;-77
2021/08/17 08:46:20;;;;;;;4.68;3.40;;;20.30;67.60;;;;;;5096365;28;20135;-79
2021/08/17 08:48:48;;;;;;;4.57;3.92;;;20.40;67.50;;;;;;5085159;28;20028;-78
2021/08/17 08:51:17;;;;;;;4.25;3.42;;;20.50;67.50;;;;;;5089431;28;20097;-78
2021/08/17 08:53:43;;;;;;;4.75;4.13;;;20.70;67.60;;;;;;5091936;28;20139;-78
2021/08/17 08:56:10;;;;;;;3.65;3.30;;;20.80;67.50;;;;;;5087307;28;20034;-77
2021/08/17 08:58:36;;;;;;;4.25;3.55;;;21.00;67.50;;;;;;5099273;28;20245;-79
2021/08/17 09:01:02;;;;;;;4.68;3.58;;;21.20;67.50;;;;;;5107347;28;20506;-78
2021/08/17 09:03:45;;;;;;;4.10;3.70;;;21.30;67.40;;;;;;5092420;28;20032;-81
2021/08/17 09:06:22;;;;;;;4.80;3.40;;;21.50;67.40;;;;;;5089046;28;20042;-77
2021/08/17 09:09:10;;;;;;;4.43;3.30;;;21.60;67.10;;;;;;5086022;28;20510;-77
2021/08/17 09:11:40;;;;;;;3.90;3.28;;;21.70;67.10;;;;;;5067049;28;20112;-77
2021/08/17 09:14:22;;;;;;;4.03;3.13;;;21.60;66.80;;;;;;5100192;28;20026;-76
2021/08/17 09:16:52;;;;;;;3.70;2.97;;;21.60;66.60;;;;;;5108841;28;20035;-77
2021/08/17 09:19:39;;;;;;;6.82;3.58;;;21.60;66.60;;;;;;5107144;28;20047;-77
2021/08/17 09:22:16;;;;;;;6.00;3.70;;;21.60;66.60;;;;;;5108983;28;20474;-78
2021/08/17 09:24:45;;;;;;;4.88;3.28;;;21.50;66.40;;;;;;5068013;28;20220;-77
2021/08/17 09:27:14;;;;;;;5.90;3.50;;;21.40;66.30;;;;;;5068035;28;20624;-77
2021/08/17 09:29:43;;;;;;;15.38;4.18;;;21.40;66.30;;;;;;5104893;28;20027;-77
2021/08/17 09:32:21;;;;;;;4.13;3.70;;;21.30;66.20;;;;;;5078494;28;20047;-76
2021/08/17 09:34:50;;;;;;;4.47;3.45;;;21.30;66.30;;;;;;5067179;28;20047;-77
2021/08/17 09:37:18;;;;;;;4.07;3.67;;;21.30;66.40;;;;;;5068288;28;20133;-77
2021/08/17 09:39:47;;;;;;;5.43;3.75;;;21.50;66.70;;;;;;5106970;28;20031;-77
2021/08/17 09:42:22;;;;;;;4.93;4.05;;;21.60;66.70;;;;;;5107907;28;20024;-78
2021/08/17 09:45:10;;;;;;;4.70;3.30;;;21.70;66.70;;;;;;5108395;28;20506;-77
2021/08/17 09:47:39;;;;;;;7.50;4.47;;;21.90;66.80;;;;;;5107246;28;20031;-77
2021/08/17 09:50:28;;;;;;;5.18;3.20;;;22.00;66.70;;;;;;5108489;28;20042;-77
2021/08/17 09:53:15;;;;;;;4.53;3.15;;;22.20;66.80;;;;;;5107744;28;20131;-77
2021/08/17 09:55:57;;;;;;;5.82;3.63;;;22.20;66.60;;;;;;5107924;28;20399;-76
2021/08/17 09:58:31;;;;;;;6.35;3.78;;;22.40;66.70;;;;;;5098964;28;20044;-76
2021/08/17 10:01:01;;;;;;;6.57;3.20;;;22.50;66.70;;;;;;5087768;28;20032;-77
2021/08/17 10:03:29;;;;;;;4.35;3.47;;;22.70;66.80;;;;;;5096755;28;20134;-77
2021/08/17 10:05:55;;;;;;;7.35;3.72;;;22.80;66.80;;;;;;5108001;28;21073;-76
2021/08/17 10:08:25;;;;;;;7.00;4.82;;;22.90;66.70;;;;;;5108314;28;20505;-82
2021/08/17 10:10:52;;;;;;;5.88;4.97;;;23.10;66.50;;;;;;5108489;28;20501;-82
2021/08/17 10:13:22;;;;;;;9.18;5.22;;;23.20;66.30;;;;;;5106143;28;20047;-79
2021/08/17 10:15:49;;;;;;;5.85;5.22;;;23.30;66.00;;;;;;5106565;28;20082;-82
2021/08/17 10:18:30;;;;;;;9.00;4.93;;;23.50;66.10;;;;;;5106897;28;20040;-79
2021/08/17 10:20:58;;;;;;;9.68;4.78;;;23.60;65.50;;;;;;5107746;28;20032;-78
2021/08/17 10:23:25;;;;;;;4.10;3.60;;;23.60;64.90;;;;;;5106101;28;20035;-79
2021/08/17 10:25:54;;;;;;;9.80;4.65;;;23.60;64.40;;;;;;5082389;28;20033;-78
2021/08/17 10:28:35;;;;;;;11.57;4.57;;;23.50;63.90;;;;;;5091229;28;20361;-78
2021/08/17 10:31:13;;;;;;;6.90;3.83;;;23.40;63.40;;;;;;5105093;28;20027;-81
2021/08/17 10:33:49;;;;;;;6.45;4.10;;;23.30;63.20;;;;;;5098252;28;20389;-77
2021/08/17 10:36:33;;;;;;;5.90;3.78;;;23.10;63.00;;;;;;5107818;28;20141;-80
2021/08/17 10:39:01;;;;;;;9.48;4.13;;;23.00;62.90;;;;;;5092228;28;20511;-77
2021/08/17 10:41:30;;;;;;;6.43;3.72;;;22.90;62.80;;;;;;5086789;28;20519;-77
2021/08/17 10:43:56;;;;;;;9.95;3.63;;;22.80;62.70;;;;;;5086633;28;20038;-76
2021/08/17 10:46:47;;;;;;;9.25;4.07;;;22.70;62.60;;;;;;5086074;28;20506;-76
2021/08/17 10:49:32;;;;;;;7.03;3.67;;;22.60;62.40;;;;;;5100794;28;20034;-76
2021/08/17 10:52:06;;;;;;;6.00;3.47;;;22.60;62.40;;;;;;5088892;28;20039;-77
2021/08/17 10:54:37;;;;;;;10.50;3.25;;;22.50;62.40;;;;;;5085336;28;20057;-77
2021/08/17 10:57:21;;;;;;;9.20;3.90;;;22.50;62.50;;;;;;5084726;28;20307;-76
2021/08/17 10:59:49;;;;;;;4.63;3.50;;;22.60;62.70;;;;;;5085730;28;20505;-76
2021/08/17 11:02:21;;;;;;;7.00;3.63;;;22.60;62.60;;;;;;5085995;28;20417;-76
2021/08/17 11:04:48;;;;;;;6.10;3.42;;;22.60;62.60;;;;;;5085290;28;20091;-77
2021/08/17 11:07:33;;;;;;;5.60;2.95;;;22.70;62.90;;;;;;5086107;28;20114;-76
2021/08/17 11:10:08;;;;;;;6.22;3.28;;;22.70;63.00;;;;;;5066046;28;20442;-77
2021/08/17 11:12:37;;;;;;;6.13;3.10;;;22.80;63.20;;;;;;5071051;28;20040;-77
2021/08/17 11:15:07;;;;;;;7.20;3.25;;;22.80;63.20;;;;;;5093156;28;20483;-75
2021/08/17 11:17:34;;;;;;;5.50;3.55;;;22.80;63.20;;;;;;5077463;28;20138;-76
2021/08/17 11:20:04;;;;;;;6.40;2.97;;;22.90;63.40;;;;;;5098443;28;20035;-78
2021/08/17 11:22:36;;;;;;;4.20;2.88;;;22.90;63.20;;;;;;5089385;28;20038;-80
2021/08/17 11:25:05;;;;;;;10.70;3.33;;;23.00;63.20;;;;;;5106593;28;20026;-77
2021/08/17 11:27:39;;;;;;;8.93;3.78;;;23.00;63.10;;;;;;5105422;28;20032;-78
2021/08/17 11:30:14;;;;;;;22.05;4.22;;;23.10;63.20;;;;;;5106055;28;20069;-80
2021/08/17 11:32:54;;;;;;;16.75;5.20;;;23.20;63.30;;;;;;5087480;28;20036;-82
2021/08/17 11:35:23;;;;;;;19.25;4.70;;;23.30;64.10;;;;;;5065042;28;20399;-92
2021/08/17 11:37:51;;;;;;;24.50;5.38;;;23.40;63.80;;;;;;5072196;28;20034;-83
2021/08/17 11:40:23;;;;;;;23.58;5.32;;;23.50;64.20;;;;;;5071336;28;20577;-81
2021/08/17 11:42:55;;;;;;;16.42;4.60;;;23.70;64.50;;;;;;5105621;28;20032;-81
2021/08/17 11:45:24;;;;;;;15.23;3.78;;;23.90;64.60;;;;;;5106458;28;20035;-81
2021/08/17 11:47:51;;;;;;;19.27;4.80;;;24.10;64.80;;;;;;5106235;28;20043;-78
2021/08/17 11:50:20;;;;;;;10.85;3.55;;;24.30;64.90;;;;;;5104652;28;20355;-78
2021/08/17 11:52:49;;;;;;;20.85;4.05;;;24.60;65.10;;;;;;5106096;28;20043;-79
2021/08/17 11:55:19;;;;;;;12.35;3.80;;;24.80;65.00;;;;;;5104832;28;20457;-78
2021/08/17 11:58:05;;;;;;;12.68;3.63;;;24.90;64.80;;;;;;5103815;28;20134;-79
2021/08/17 12:00:32;;;;;;;25.08;4.13;;;24.90;64.60;;;;;;5103994;28;20032;-77
2021/08/17 12:03:08;;;;;;;13.68;3.42;;;25.00;64.50;;;;;;5087029;28;20036;-77
2021/08/17 12:05:37;;;;;;;11.45;3.50;;;25.00;64.30;;;;;;5088127;28;20486;-78
2021/08/17 12:08:05;;;;;;;20.08;3.90;;;25.10;64.30;;;;;;5093254;28;20118;-77
2021/08/17 12:10:34;;;;;;;11.75;3.22;;;25.10;64.20;;;;;;5109435;28;20044;-77
2021/08/17 12:13:16;;;;;;;8.75;2.90;;;25.10;64.10;;;;;;5109550;28;20435;-79
2021/08/17 12:15:55;;;;;;;6.65;3.15;;;25.10;63.90;;;;;;5107938;28;20040;-77
2021/08/17 12:18:31;;;;;;;7.72;2.67;;;25.10;63.80;;;;;;5090540;28;20441;-80
2021/08/17 12:21:05;;;;;;;11.35;3.35;;;25.10;63.70;;;;;;5091610;28;20452;-78
2021/08/17 12:23:38;;;;;;;7.70;2.80;;;25.10;63.60;;;;;;5108216;28;20963;-79
2021/08/17 12:26:19;;;;;;;5.60;2.72;;;25.20;63.50;;;;;;5108503;28;20050;-77
2021/08/17 12:28:49;;;;;;;;;;;25.20;63.20;;;;;;5109213;28;20027;-82
2021/08/17 12:31:27;;;;;;;8.93;3.03;;;25.20;63.50;;;;;;5104051;28;19908;-83
2021/08/17 12:33:54;;;;;;;4.35;2.72;;;25.20;63.10;;;;;;5086689;28;20025;-83
2021/08/17 12:36:22;;;;;;;5.65;2.38;;;25.20;63.00;;;;;;5088272;28;20036;-82
2021/08/17 12:38:49;;;;;;;4.72;2.50;;;25.20;62.50;;;;;;5100153;28;20027;-81
2021/08/17 12:41:33;;;;;;;6.22;2.95;;;25.30;62.00;;;;;;5107948;28;20024;-80
2021/08/17 12:43:59;;;;;;;6.50;2.08;;;25.20;61.50;;;;;;5108076;28;20046;-82
2021/08/17 12:46:25;;;;;;;7.80;2.38;;;25.20;61.50;;;;;;5108528;28;20063;-83
2021/08/17 12:48:51;;;;;;;5.63;2.60;;;25.30;61.30;;;;;;5106900;28;20065;-83
2021/08/17 12:51:25;;;;;;;5.18;2.50;;;25.30;61.10;;;;;;5109272;28;20019;-84